sensor_id;sensor_type;location;lat;lon;timestamp;pressure;altitude;pressure_sealevel;temperature;humidity
73633;BME280;61927;50.080;14.418;2023-02-01T00:01:38;99388.69;;;4.80;66.73
73633;BME280;61927;50.080;14.418;2023-02-01T00:04:04;99381.06;;;4.74;66.03
73633;BME280;61927;50.080;14.418;2023-02-01T00:06:30;99390.94;;;4.67;66.39
73633;BME280;61927;50.080;14.418;2023-02-01T00:08:56;99404.16;;;4.66;66.48
73633;BME280;61927;50.080;14.418;2023-02-01T00:11:22;99403.53;;;4.59;66.74
73633;BME280;61927;50.080;14.418;2023-02-01T00:13:48;99407.25;;;4.53;66.67
73633;BME280;61927;50.080;14.418;2023-02-01T00:16:17;99397.75;;;4.49;67.21
73633;BME280;61927;50.080;14.418;2023-02-01T00:18:44;99398.97;;;4.41;67.88
73633;BME280;61927;50.080;14.418;2023-02-01T00:21:10;99389.44;;;4.38;68.01
73633;BME280;61927;50.080;14.418;2023-02-01T00:23:37;99401.53;;;4.42;67.32
73633;BME280;61927;50.080;14.418;2023-02-01T00:26:05;99397.72;;;4.51;67.40
73633;BME280;61927;50.080;14.418;2023-02-01T00:28:31;99383.47;;;4.57;67.55
73633;BME280;61927;50.080;14.418;2023-02-01T00:31:02;99387.59;;;4.64;67.61
73633;BME280;61927;50.080;14.418;2023-02-01T00:33:28;99397.19;;;4.65;67.92
73633;BME280;61927;50.080;14.418;2023-02-01T00:35:59;99404.31;;;4.61;67.77
73633;BME280;61927;50.080;14.418;2023-02-01T00:38:25;99400.09;;;4.57;68.10
73633;BME280;61927;50.080;14.418;2023-02-01T00:40:51;99391.38;;;4.57;67.89
73633;BME280;61927;50.080;14.418;2023-02-01T00:43:17;99398.44;;;4.54;68.32
73633;BME280;61927;50.080;14.418;2023-02-01T00:45:42;99404.63;;;4.53;68.54
73633;BME280;61927;50.080;14.418;2023-02-01T00:48:08;99402.06;;;4.52;68.71
73633;BME280;61927;50.080;14.418;2023-02-01T00:50:33;99395.88;;;4.53;68.62
73633;BME280;61927;50.080;14.418;2023-02-01T00:52:59;99399.41;;;4.52;69.34
73633;BME280;61927;50.080;14.418;2023-02-01T00:55:25;99402.06;;;4.52;69.21
73633;BME280;61927;50.080;14.418;2023-02-01T00:57:50;99394.91;;;4.56;69.54
73633;BME280;61927;50.080;14.418;2023-02-01T01:00:16;99387.94;;;4.54;69.22
73633;BME280;61927;50.080;14.418;2023-02-01T01:02:42;99392.56;;;4.48;69.09
73633;BME280;61927;50.080;14.418;2023-02-01T01:05:08;99403.38;;;4.40;69.39
73633;BME280;61927;50.080;14.418;2023-02-01T01:07:33;99408.38;;;4.46;69.21
73633;BME280;61927;50.080;14.418;2023-02-01T01:09:59;99411.53;;;4.56;69.62
73633;BME280;61927;50.080;14.418;2023-02-01T01:12:25;99413.88;;;4.64;68.96
73633;BME280;61927;50.080;14.418;2023-02-01T01:14:51;99411.13;;;4.67;69.14
73633;BME280;61927;50.080;14.418;2023-02-01T01:17:16;99403.22;;;4.67;69.23
73633;BME280;61927;50.080;14.418;2023-02-01T01:19:42;99401.47;;;4.67;69.47
73633;BME280;61927;50.080;14.418;2023-02-01T01:22:07;99404.94;;;4.68;69.21
73633;BME280;61927;50.080;14.418;2023-02-01T01:24:33;99411.91;;;4.69;69.38
73633;BME280;61927;50.080;14.418;2023-02-01T01:26:59;99417.22;;;4.67;69.11
73633;BME280;61927;50.080;14.418;2023-02-01T01:29:25;99416.31;;;4.68;68.63
73633;BME280;61927;50.080;14.418;2023-02-01T01:31:50;99410.09;;;4.71;68.49
73633;BME280;61927;50.080;14.418;2023-02-01T01:34:16;99410.94;;;4.71;68.01
73633;BME280;61927;50.080;14.418;2023-02-01T01:36:41;99403.78;;;4.75;68.36
73633;BME280;61927;50.080;14.418;2023-02-01T01:39:07;99399.44;;;4.74;68.88
73633;BME280;61927;50.080;14.418;2023-02-01T01:41:33;99403.06;;;4.71;68.10
73633;BME280;61927;50.080;14.418;2023-02-01T01:44:00;99403.66;;;4.78;68.19
73633;BME280;61927;50.080;14.418;2023-02-01T01:46:38;99408.06;;;4.77;67.12
73633;BME280;61927;50.080;14.418;2023-02-01T01:49:22;99406.25;;;4.79;66.81
73633;BME280;61927;50.080;14.418;2023-02-01T01:51:53;99410.47;;;4.83;65.93
73633;BME280;61927;50.080;14.418;2023-02-01T01:54:29;99397.38;;;4.82;66.00
73633;BME280;61927;50.080;14.418;2023-02-01T01:57:00;99395.66;;;4.81;65.95
73633;BME280;61927;50.080;14.418;2023-02-01T01:59:28;99411.38;;;4.82;64.98
73633;BME280;61927;50.080;14.418;2023-02-01T02:01:55;99409.50;;;4.86;64.63
73633;BME280;61927;50.080;14.418;2023-02-01T02:04:21;99403.25;;;4.89;64.27
73633;BME280;61927;50.080;14.418;2023-02-01T02:07:08;99400.81;;;4.84;64.64
73633;BME280;61927;50.080;14.418;2023-02-01T02:09:37;99406.34;;;4.76;64.03
73633;BME280;61927;50.080;14.418;2023-02-01T02:12:03;99400.19;;;4.77;63.77
73633;BME280;61927;50.080;14.418;2023-02-01T02:14:29;99391.81;;;4.68;63.86
73633;BME280;61927;50.080;14.418;2023-02-01T02:17:07;99396.25;;;4.66;63.50
73633;BME280;61927;50.080;14.418;2023-02-01T02:19:49;99384.97;;;4.64;63.35
73633;BME280;61927;50.080;14.418;2023-02-01T02:22:52;99413.81;;;4.65;62.23
73633;BME280;61927;50.080;14.418;2023-02-01T02:28:13;99427.56;;;4.72;61.99
73633;BME280;61927;50.080;14.418;2023-02-01T02:39:12;99439.63;;;4.99;59.87
73633;BME280;61927;50.080;14.418;2023-02-01T02:45:07;99447.28;;;5.05;59.96
73633;BME280;61927;50.080;14.418;2023-02-01T02:48:17;99440.06;;;5.10;59.54
73633;BME280;61927;50.080;14.418;2023-02-01T02:51:06;99426.75;;;5.15;60.12
73633;BME280;61927;50.080;14.418;2023-02-01T02:54:10;99416.16;;;5.16;60.06
73633;BME280;61927;50.080;14.418;2023-02-01T02:56:56;99419.75;;;5.14;60.13
73633;BME280;61927;50.080;14.418;2023-02-01T02:59:44;99412.84;;;5.11;61.71
73633;BME280;61927;50.080;14.418;2023-02-01T03:02:30;99401.53;;;5.09;61.97
73633;BME280;61927;50.080;14.418;2023-02-01T03:05:15;99404.28;;;5.06;62.65
73633;BME280;61927;50.080;14.418;2023-02-01T03:13:16;99400.13;;;5.01;64.12
73633;BME280;61927;50.080;14.418;2023-02-01T03:15:53;99390.72;;;4.95;63.80
73633;BME280;61927;50.080;14.418;2023-02-01T03:18:46;99392.75;;;4.89;64.80
73633;BME280;61927;50.080;14.418;2023-02-01T03:21:20;99392.00;;;4.85;64.27
73633;BME280;61927;50.080;14.418;2023-02-01T03:23:47;99386.00;;;4.81;64.92
73633;BME280;61927;50.080;14.418;2023-02-01T03:26:16;99391.16;;;4.84;64.42
73633;BME280;61927;50.080;14.418;2023-02-01T03:28:55;99389.50;;;4.82;64.85
73633;BME280;61927;50.080;14.418;2023-02-01T03:31:22;99382.63;;;4.78;65.17
73633;BME280;61927;50.080;14.418;2023-02-01T03:33:48;99375.63;;;4.78;64.93
73633;BME280;61927;50.080;14.418;2023-02-01T03:39:00;99358.44;;;4.70;64.75
73633;BME280;61927;50.080;14.418;2023-02-01T03:41:43;99358.69;;;4.64;65.32
73633;BME280;61927;50.080;14.418;2023-02-01T03:44:16;99363.00;;;4.65;64.91
73633;BME280;61927;50.080;14.418;2023-02-01T03:47:02;99363.13;;;4.62;64.80
73633;BME280;61927;50.080;14.418;2023-02-01T03:49:33;99361.38;;;4.62;65.21
73633;BME280;61927;50.080;14.418;2023-02-01T03:52:01;99356.16;;;4.61;65.03
73633;BME280;61927;50.080;14.418;2023-02-01T03:54:28;99354.41;;;4.61;64.96
73633;BME280;61927;50.080;14.418;2023-02-01T03:56:56;99358.84;;;4.59;64.77
73633;BME280;61927;50.080;14.418;2023-02-01T03:59:24;99364.16;;;4.58;65.14
73633;BME280;61927;50.080;14.418;2023-02-01T04:01:50;99363.38;;;4.56;64.93
73633;BME280;61927;50.080;14.418;2023-02-01T04:04:15;99364.28;;;4.54;65.46
73633;BME280;61927;50.080;14.418;2023-02-01T04:06:46;99381.16;;;4.49;65.22
73633;BME280;61927;50.080;14.418;2023-02-01T04:09:12;99384.56;;;4.51;65.54
73633;BME280;61927;50.080;14.418;2023-02-01T04:11:38;99381.88;;;4.52;65.99
73633;BME280;61927;50.080;14.418;2023-02-01T04:14:03;99382.75;;;4.53;65.67
73633;BME280;61927;50.080;14.418;2023-02-01T04:16:31;99385.31;;;4.54;66.09
73633;BME280;61927;50.080;14.418;2023-02-01T04:18:57;99388.06;;;4.51;65.47
73633;BME280;61927;50.080;14.418;2023-02-01T04:21:25;99390.69;;;4.51;65.60
73633;BME280;61927;50.080;14.418;2023-02-01T04:23:51;99381.88;;;4.52;65.68
73633;BME280;61927;50.080;14.418;2023-02-01T04:26:16;99372.91;;;4.58;65.59
73633;BME280;61927;50.080;14.418;2023-02-01T04:28:42;99366.69;;;4.61;65.51
73633;BME280;61927;50.080;14.418;2023-02-01T04:31:08;99375.34;;;4.63;66.16
73633;BME280;61927;50.080;14.418;2023-02-01T04:33:33;99376.34;;;4.60;65.92
73633;BME280;61927;50.080;14.418;2023-02-01T04:35:59;99370.16;;;4.61;66.29
73633;BME280;61927;50.080;14.418;2023-02-01T04:38:25;99364.97;;;4.60;66.01
73633;BME280;61927;50.080;14.418;2023-02-01T04:40:52;99359.94;;;4.53;66.34
73633;BME280;61927;50.080;14.418;2023-02-01T04:43:17;99347.00;;;4.49;66.37
73633;BME280;61927;50.080;14.418;2023-02-01T04:45:48;99341.00;;;4.45;67.30
73633;BME280;61927;50.080;14.418;2023-02-01T04:48:14;99327.13;;;4.42;67.10
73633;BME280;61927;50.080;14.418;2023-02-01T04:50:40;99329.81;;;4.40;66.92
73633;BME280;61927;50.080;14.418;2023-02-01T04:53:05;99320.28;;;4.38;66.87
73633;BME280;61927;50.080;14.418;2023-02-01T04:55:31;99319.38;;;4.39;67.36
73633;BME280;61927;50.080;14.418;2023-02-01T04:57:57;99313.25;;;4.38;66.75
73633;BME280;61927;50.080;14.418;2023-02-01T05:00:23;99310.63;;;4.38;67.26
73633;BME280;61927;50.080;14.418;2023-02-01T05:02:48;99303.59;;;4.39;67.01
73633;BME280;61927;50.080;14.418;2023-02-01T05:05:14;99297.44;;;4.40;66.93
73633;BME280;61927;50.080;14.418;2023-02-01T05:07:39;99298.47;;;4.36;67.31
73633;BME280;61927;50.080;14.418;2023-02-01T05:10:05;99307.16;;;4.38;67.29
73633;BME280;61927;50.080;14.418;2023-02-01T05:12:31;99309.81;;;4.36;67.59
73633;BME280;61927;50.080;14.418;2023-02-01T05:15:15;99313.44;;;4.34;67.81
73633;BME280;61927;50.080;14.418;2023-02-01T05:17:41;99309.94;;;4.33;67.51
73633;BME280;61927;50.080;14.418;2023-02-01T05:20:09;99309.16;;;4.31;68.02
73633;BME280;61927;50.080;14.418;2023-02-01T05:22:35;99313.44;;;4.34;67.52
73633;BME280;61927;50.080;14.418;2023-02-01T05:25:00;99308.00;;;4.38;67.76
73633;BME280;61927;50.080;14.418;2023-02-01T05:27:29;99311.34;;;4.42;67.60
73633;BME280;61927;50.080;14.418;2023-02-01T05:29:55;99319.19;;;4.43;66.90
73633;BME280;61927;50.080;14.418;2023-02-01T05:32:20;99314.72;;;4.45;67.25
73633;BME280;61927;50.080;14.418;2023-02-01T05:34:46;99319.75;;;4.51;67.33
73633;BME280;61927;50.080;14.418;2023-02-01T05:37:11;99325.13;;;4.48;66.98
73633;BME280;61927;50.080;14.418;2023-02-01T05:39:37;99317.13;;;4.51;67.18
73633;BME280;61927;50.080;14.418;2023-02-01T05:42:02;99304.78;;;4.53;67.06
73633;BME280;61927;50.080;14.418;2023-02-01T05:44:28;99309.22;;;4.51;67.26
73633;BME280;61927;50.080;14.418;2023-02-01T05:46:54;99313.63;;;4.51;67.26
73633;BME280;61927;50.080;14.418;2023-02-01T05:49:19;99300.44;;;4.52;67.02
73633;BME280;61927;50.080;14.418;2023-02-01T05:51:45;99305.56;;;4.56;67.48
73633;BME280;61927;50.080;14.418;2023-02-01T05:54:11;99288.03;;;4.56;67.55
73633;BME280;61927;50.080;14.418;2023-02-01T05:56:36;99297.75;;;4.54;67.03
73633;BME280;61927;50.080;14.418;2023-02-01T05:59:02;99302.13;;;4.53;67.23
73633;BME280;61927;50.080;14.418;2023-02-01T06:01:28;99297.63;;;4.57;67.18
73633;BME280;61927;50.080;14.418;2023-02-01T06:03:53;99294.94;;;4.59;67.52
73633;BME280;61927;50.080;14.418;2023-02-01T06:06:19;99289.63;;;4.60;67.03
73633;BME280;61927;50.080;14.418;2023-02-01T06:08:45;99288.63;;;4.63;67.15
73633;BME280;61927;50.080;14.418;2023-02-01T06:11:11;99299.22;;;4.61;67.13
73633;BME280;61927;50.080;14.418;2023-02-01T06:13:36;99292.06;;;4.65;67.44
73633;BME280;61927;50.080;14.418;2023-02-01T06:16:04;99295.72;;;4.61;67.24
73633;BME280;61927;50.080;14.418;2023-02-01T06:18:35;99281.66;;;4.62;67.29
73633;BME280;61927;50.080;14.418;2023-02-01T06:21:01;99270.06;;;4.67;66.86
73633;BME280;61927;50.080;14.418;2023-02-01T06:23:30;99259.53;;;4.67;67.28
73633;BME280;61927;50.080;14.418;2023-02-01T06:26:02;99282.28;;;4.68;67.35
73633;BME280;61927;50.080;14.418;2023-02-01T06:28:29;99285.03;;;4.65;66.88
73633;BME280;61927;50.080;14.418;2023-02-01T06:30:55;99272.94;;;4.61;67.67
73633;BME280;61927;50.080;14.418;2023-02-01T06:33:21;99275.81;;;4.55;67.50
73633;BME280;61927;50.080;14.418;2023-02-01T06:35:46;99282.78;;;4.56;68.13
73633;BME280;61927;50.080;14.418;2023-02-01T06:38:13;99278.31;;;4.58;67.83
73633;BME280;61927;50.080;14.418;2023-02-01T06:40:39;99272.06;;;4.61;68.73
73633;BME280;61927;50.080;14.418;2023-02-01T06:43:07;99268.66;;;4.59;68.25
73633;BME280;61927;50.080;14.418;2023-02-01T06:45:33;99270.44;;;4.58;68.13
73633;BME280;61927;50.080;14.418;2023-02-01T06:47:59;99261.69;;;4.58;68.74
73633;BME280;61927;50.080;14.418;2023-02-01T06:50:26;99261.81;;;4.54;68.88
73633;BME280;61927;50.080;14.418;2023-02-01T06:52:52;99253.13;;;4.52;68.80
73633;BME280;61927;50.080;14.418;2023-02-01T06:55:17;99247.88;;;4.52;69.04
73633;BME280;61927;50.080;14.418;2023-02-01T06:57:43;99260.03;;;4.55;69.03
73633;BME280;61927;50.080;14.418;2023-02-01T07:00:09;99258.31;;;4.54;68.95
73633;BME280;61927;50.080;14.418;2023-02-01T07:02:35;99256.63;;;4.53;69.00
73633;BME280;61927;50.080;14.418;2023-02-01T07:05:00;99255.69;;;4.54;69.03
73633;BME280;61927;50.080;14.418;2023-02-01T07:07:26;99262.66;;;4.55;69.19
73633;BME280;61927;50.080;14.418;2023-02-01T07:09:51;99261.75;;;4.56;68.99
73633;BME280;61927;50.080;14.418;2023-02-01T07:12:18;99257.41;;;4.55;69.50
73633;BME280;61927;50.080;14.418;2023-02-01T07:14:44;99248.72;;;4.53;69.50
73633;BME280;61927;50.080;14.418;2023-02-01T07:17:10;99266.41;;;4.49;69.53
73633;BME280;61927;50.080;14.418;2023-02-01T07:19:35;99256.75;;;4.50;69.59
73633;BME280;61927;50.080;14.418;2023-02-01T07:22:02;99256.88;;;4.47;70.03
73633;BME280;61927;50.080;14.418;2023-02-01T07:24:28;99254.06;;;4.51;70.20
73633;BME280;61927;50.080;14.418;2023-02-01T07:26:54;99253.00;;;4.56;69.06
73633;BME280;61927;50.080;14.418;2023-02-01T07:29:19;99247.75;;;4.56;69.04
73633;BME280;61927;50.080;14.418;2023-02-01T07:31:46;99247.88;;;4.52;69.06
73633;BME280;61927;50.080;14.418;2023-02-01T07:34:11;99243.53;;;4.51;70.09
73633;BME280;61927;50.080;14.418;2023-02-01T07:36:37;99248.53;;;4.58;69.43
73633;BME280;61927;50.080;14.418;2023-02-01T07:39:03;99254.41;;;4.64;69.34
73633;BME280;61927;50.080;14.418;2023-02-01T07:41:29;99267.38;;;4.69;69.05
73633;BME280;61927;50.080;14.418;2023-02-01T07:43:55;99255.69;;;4.76;69.03
73633;BME280;61927;50.080;14.418;2023-02-01T07:46:21;99253.72;;;4.81;69.44
73633;BME280;61927;50.080;14.418;2023-02-01T07:48:46;99244.91;;;4.82;68.76
73633;BME280;61927;50.080;14.418;2023-02-01T07:51:14;99248.13;;;4.89;68.79
73633;BME280;61927;50.080;14.418;2023-02-01T07:53:41;99240.25;;;4.89;68.24
73633;BME280;61927;50.080;14.418;2023-02-01T07:56:16;99240.00;;;4.95;68.58
73633;BME280;61927;50.080;14.418;2023-02-01T07:58:42;99242.56;;;4.96;68.53
73633;BME280;61927;50.080;14.418;2023-02-01T08:01:17;99239.94;;;4.96;68.55
73633;BME280;61927;50.080;14.418;2023-02-01T08:03:52;99234.47;;;5.01;68.18
73633;BME280;61927;50.080;14.418;2023-02-01T08:06:19;99241.44;;;5.02;67.46
73633;BME280;61927;50.080;14.418;2023-02-01T08:08:48;99247.56;;;5.02;67.28
73633;BME280;61927;50.080;14.418;2023-02-01T08:11:15;99243.88;;;5.06;67.20
73633;BME280;61927;50.080;14.418;2023-02-01T08:13:42;99249.00;;;5.09;67.63
73633;BME280;61927;50.080;14.418;2023-02-01T08:16:09;99232.38;;;5.09;67.28
73633;BME280;61927;50.080;14.418;2023-02-01T08:18:36;99239.28;;;5.11;67.82
73633;BME280;61927;50.080;14.418;2023-02-01T08:23:30;99226.78;;;5.16;67.99
73633;BME280;61927;50.080;14.418;2023-02-01T08:26:25;99232.81;;;5.18;67.72
73633;BME280;61927;50.080;14.418;2023-02-01T08:28:52;99227.44;;;5.22;67.37
73633;BME280;61927;50.080;14.418;2023-02-01T08:31:19;99220.31;;;5.24;66.69
73633;BME280;61927;50.080;14.418;2023-02-01T08:33:54;99223.09;;;5.21;67.23
73633;BME280;61927;50.080;14.418;2023-02-01T08:36:21;99216.84;;;5.23;66.24
73633;BME280;61927;50.080;14.418;2023-02-01T08:38:47;99219.41;;;5.25;67.02
73633;BME280;61927;50.080;14.418;2023-02-01T08:41:18;99223.22;;;5.17;66.96
73633;BME280;61927;50.080;14.418;2023-02-01T08:43:44;99229.59;;;5.12;67.06
73633;BME280;61927;50.080;14.418;2023-02-01T08:46:11;99227.16;;;5.07;67.90
73633;BME280;61927;50.080;14.418;2023-02-01T08:48:37;99224.81;;;5.01;68.00
73633;BME280;61927;50.080;14.418;2023-02-01T08:51:10;99230.00;;;5.03;67.76
73633;BME280;61927;50.080;14.418;2023-02-01T08:53:36;99213.09;;;5.08;67.72
73633;BME280;61927;50.080;14.418;2023-02-01T08:56:03;99209.22;;;5.17;67.81
73633;BME280;61927;50.080;14.418;2023-02-01T08:58:28;99215.19;;;5.21;68.17
73633;BME280;61927;50.080;14.418;2023-02-01T09:00:54;99214.28;;;5.22;67.42
73633;BME280;61927;50.080;14.418;2023-02-01T09:03:20;99215.91;;;5.24;67.13
73633;BME280;61927;50.080;14.418;2023-02-01T09:05:46;99213.28;;;5.24;66.61
73633;BME280;61927;50.080;14.418;2023-02-01T09:08:13;99213.09;;;5.29;66.73
73633;BME280;61927;50.080;14.418;2023-02-01T09:10:41;99207.56;;;5.35;66.94
73633;BME280;61927;50.080;14.418;2023-02-01T09:13:07;99201.75;;;5.47;66.31
73633;BME280;61927;50.080;14.418;2023-02-01T09:15:33;99203.03;;;5.57;65.45
73633;BME280;61927;50.080;14.418;2023-02-01T09:17:59;99199.13;;;5.66;65.63
73633;BME280;61927;50.080;14.418;2023-02-01T09:20:25;99202.53;;;5.68;64.70
73633;BME280;61927;50.080;14.418;2023-02-01T09:22:52;99196.28;;;5.70;64.61
73633;BME280;61927;50.080;14.418;2023-02-01T09:25:18;99193.59;;;5.72;65.06
73633;BME280;61927;50.080;14.418;2023-02-01T09:27:44;99192.22;;;5.82;64.71
73633;BME280;61927;50.080;14.418;2023-02-01T09:30:10;99194.72;;;5.85;64.19
73633;BME280;61927;50.080;14.418;2023-02-01T09:32:36;99199.91;;;5.87;63.61
73633;BME280;61927;50.080;14.418;2023-02-01T09:35:02;99190.16;;;5.89;63.30
73633;BME280;61927;50.080;14.418;2023-02-01T09:37:28;99191.16;;;5.86;62.46
73633;BME280;61927;50.080;14.418;2023-02-01T09:39:53;99183.94;;;5.91;62.73
73633;BME280;61927;50.080;14.418;2023-02-01T09:48:13;99182.34;;;5.87;61.96
73633;BME280;61927;50.080;14.418;2023-02-01T09:50:41;99186.69;;;5.88;62.67
73633;BME280;61927;50.080;14.418;2023-02-01T09:53:23;99182.88;;;5.95;61.96
73633;BME280;61927;50.080;14.418;2023-02-01T09:55:51;99174.31;;;6.09;62.03
73633;BME280;61927;50.080;14.418;2023-02-01T09:58:41;99184.25;;;6.21;61.24
73633;BME280;61927;50.080;14.418;2023-02-01T10:01:20;99182.88;;;6.31;60.32
73633;BME280;61927;50.080;14.418;2023-02-01T10:03:48;99180.16;;;6.33;60.15
73633;BME280;61927;50.080;14.418;2023-02-01T10:06:28;99183.03;;;6.28;60.36
73633;BME280;61927;50.080;14.418;2023-02-01T10:09:11;99195.22;;;6.12;61.14
73633;BME280;61927;50.080;14.418;2023-02-01T10:17:16;99194.16;;;6.16;60.22
73633;BME280;61927;50.080;14.418;2023-02-01T10:19:55;99203.13;;;6.12;61.07
73633;BME280;61927;50.080;14.418;2023-02-01T10:22:51;99195.88;;;6.17;60.23
73633;BME280;61927;50.080;14.418;2023-02-01T10:27:47;99185.81;;;5.88;62.17
73633;BME280;61927;50.080;14.418;2023-02-01T10:30:23;99194.53;;;5.90;62.15
73633;BME280;61927;50.080;14.418;2023-02-01T10:51:54;99179.69;;;5.87;62.78
73633;BME280;61927;50.080;14.418;2023-02-01T10:54:35;99182.47;;;5.84;63.12
73633;BME280;61927;50.080;14.418;2023-02-01T10:57:07;99182.78;;;5.78;62.42
73633;BME280;61927;50.080;14.418;2023-02-01T10:59:36;99182.91;;;5.75;62.45
73633;BME280;61927;50.080;14.418;2023-02-01T11:02:16;99171.38;;;5.77;61.88
73633;BME280;61927;50.080;14.418;2023-02-01T11:04:44;99170.94;;;5.87;61.10
73633;BME280;61927;50.080;14.418;2023-02-01T11:07:19;99168.06;;;5.93;61.23
73633;BME280;61927;50.080;14.418;2023-02-01T11:09:51;99172.97;;;6.00;60.27
73633;BME280;61927;50.080;14.418;2023-02-01T11:12:37;99161.28;;;6.06;60.21
73633;BME280;61927;50.080;14.418;2023-02-01T11:15:15;99167.25;;;6.09;59.53
73633;BME280;61927;50.080;14.418;2023-02-01T11:17:45;99182.78;;;6.15;59.31
73633;BME280;61927;50.080;14.418;2023-02-01T11:22:55;99166.25;;;6.12;59.73
73633;BME280;61927;50.080;14.418;2023-02-01T11:25:23;99161.25;;;6.25;59.45
73633;BME280;61927;50.080;14.418;2023-02-01T11:27:54;99168.47;;;6.38;58.64
73633;BME280;61927;50.080;14.418;2023-02-01T11:30:45;99190.25;;;6.42;58.47
73633;BME280;61927;50.080;14.418;2023-02-01T11:33:15;99188.94;;;6.51;57.99
73633;BME280;61927;50.080;14.418;2023-02-01T11:35:42;99201.84;;;6.57;58.33
73633;BME280;61927;50.080;14.418;2023-02-01T11:38:29;99169.97;;;6.61;57.76
73633;BME280;61927;50.080;14.418;2023-02-01T11:41:21;99182.44;;;6.58;58.30
73633;BME280;61927;50.080;14.418;2023-02-01T11:43:58;99173.22;;;6.49;57.80
73633;BME280;61927;50.080;14.418;2023-02-01T11:46:29;99175.44;;;6.39;57.77
73633;BME280;61927;50.080;14.418;2023-02-01T11:48:56;99184.59;;;6.50;57.82
73633;BME280;61927;50.080;14.418;2023-02-01T11:57:24;99173.47;;;6.62;56.69
73633;BME280;61927;50.080;14.418;2023-02-01T12:05:31;99188.81;;;6.54;57.02
73633;BME280;61927;50.080;14.418;2023-02-01T12:17:00;99210.16;;;6.84;55.77
73633;BME280;61927;50.080;14.418;2023-02-01T12:31:36;99174.16;;;6.65;57.29
73633;BME280;61927;50.080;14.418;2023-02-01T12:39:30;99176.28;;;6.23;58.37
73633;BME280;61927;50.080;14.418;2023-02-01T12:42:02;99174.34;;;6.26;59.41
73633;BME280;61927;50.080;14.418;2023-02-01T12:44:53;99172.50;;;6.28;60.53
73633;BME280;61927;50.080;14.418;2023-02-01T12:47:28;99178.31;;;6.35;59.59
73633;BME280;61927;50.080;14.418;2023-02-01T12:50:11;99196.19;;;6.28;59.50
73633;BME280;61927;50.080;14.418;2023-02-01T12:52:44;99217.91;;;6.33;59.50
73633;BME280;61927;50.080;14.418;2023-02-01T12:55:23;99195.66;;;6.22;59.59
73633;BME280;61927;50.080;14.418;2023-02-01T12:58:02;99182.91;;;6.12;59.17
73633;BME280;61927;50.080;14.418;2023-02-01T13:00:36;99167.88;;;6.14;59.96
73633;BME280;61927;50.080;14.418;2023-02-01T13:05:59;99157.16;;;6.36;59.15
73633;BME280;61927;50.080;14.418;2023-02-01T13:11:25;99146.47;;;6.74;56.91
73633;BME280;61927;50.080;14.418;2023-02-01T13:13:59;99146.94;;;6.82;56.78
73633;BME280;61927;50.080;14.418;2023-02-01T13:16:34;99156.84;;;6.94;56.11
73633;BME280;61927;50.080;14.418;2023-02-01T13:19:16;99153.34;;;6.94;55.89
73633;BME280;61927;50.080;14.418;2023-02-01T13:21:48;99162.69;;;6.84;54.81
73633;BME280;61927;50.080;14.418;2023-02-01T13:27:02;99164.16;;;6.72;54.07
73633;BME280;61927;50.080;14.418;2023-02-01T13:29:29;99154.47;;;6.72;54.10
73633;BME280;61927;50.080;14.418;2023-02-01T13:40:44;99157.78;;;6.76;52.91
73633;BME280;61927;50.080;14.418;2023-02-01T13:43:17;99172.44;;;6.82;52.15
73633;BME280;61927;50.080;14.418;2023-02-01T13:45:50;99148.19;;;6.75;51.37
73633;BME280;61927;50.080;14.418;2023-02-01T13:48:41;99148.72;;;6.82;52.13
73633;BME280;61927;50.080;14.418;2023-02-01T13:51:12;99160.81;;;6.86;51.44
73633;BME280;61927;50.080;14.418;2023-02-01T13:53:45;99149.34;;;6.87;51.47
73633;BME280;61927;50.080;14.418;2023-02-01T13:56:15;99147.63;;;6.86;51.54
73633;BME280;61927;50.080;14.418;2023-02-01T13:58:43;99146.63;;;6.88;52.83
73633;BME280;61927;50.080;14.418;2023-02-01T14:03:57;99161.13;;;6.79;52.77
73633;BME280;61927;50.080;14.418;2023-02-01T14:06:44;99161.34;;;6.75;53.78
73633;BME280;61927;50.080;14.418;2023-02-01T14:11:55;99163.84;;;6.78;54.13
73633;BME280;61927;50.080;14.418;2023-02-01T14:19:26;99156.53;;;6.83;54.81
73633;BME280;61927;50.080;14.418;2023-02-01T14:21:54;99156.16;;;6.73;55.59
73633;BME280;61927;50.080;14.418;2023-02-01T14:24:26;99144.47;;;6.62;55.86
73633;BME280;61927;50.080;14.418;2023-02-01T14:26:55;99147.41;;;6.56;55.56
73633;BME280;61927;50.080;14.418;2023-02-01T14:29:34;99153.69;;;6.53;56.04
73633;BME280;61927;50.080;14.418;2023-02-01T14:32:11;99147.78;;;6.48;56.44
73633;BME280;61927;50.080;14.418;2023-02-01T14:34:56;99152.66;;;6.56;55.54
73633;BME280;61927;50.080;14.418;2023-02-01T14:37:29;99148.41;;;6.53;55.89
73633;BME280;61927;50.080;14.418;2023-02-01T14:40:04;99148.25;;;6.56;55.06
73633;BME280;61927;50.080;14.418;2023-02-01T14:52:50;99138.88;;;6.51;55.64
73633;BME280;61927;50.080;14.418;2023-02-01T14:55:24;99143.13;;;6.53;55.49
73633;BME280;61927;50.080;14.418;2023-02-01T14:57:53;99160.66;;;6.54;55.31
73633;BME280;61927;50.080;14.418;2023-02-01T15:00:28;99155.63;;;6.50;54.49
73633;BME280;61927;50.080;14.418;2023-02-01T15:03:19;99149.94;;;6.40;54.97
73633;BME280;61927;50.080;14.418;2023-02-01T15:05:58;99151.72;;;6.39;54.65
73633;BME280;61927;50.080;14.418;2023-02-01T15:08:28;99145.13;;;6.31;54.85
73633;BME280;61927;50.080;14.418;2023-02-01T15:10:57;99146.00;;;6.31;55.50
73633;BME280;61927;50.080;14.418;2023-02-01T15:13:27;99145.59;;;6.39;55.46
73633;BME280;61927;50.080;14.418;2023-02-01T15:16:12;99148.16;;;6.40;55.78
73633;BME280;61927;50.080;14.418;2023-02-01T15:18:39;99146.47;;;6.39;55.90
73633;BME280;61927;50.080;14.418;2023-02-01T15:21:06;99158.56;;;6.43;56.34
73633;BME280;61927;50.080;14.418;2023-02-01T15:23:32;99136.00;;;6.38;55.83
73633;BME280;61927;50.080;14.418;2023-02-01T15:25:58;99151.19;;;6.33;56.26
73633;BME280;61927;50.080;14.418;2023-02-01T15:28:25;99143.44;;;6.30;56.47
73633;BME280;61927;50.080;14.418;2023-02-01T15:31:03;99140.94;;;6.27;56.52
73633;BME280;61927;50.080;14.418;2023-02-01T15:33:30;99146.28;;;6.25;56.58